sensor_id;sensor_type;location;lat;lon;timestamp;P1;durP1;ratioP1;P2;durP2;ratioP2
4732;SDS011;2380;53.668;10.008;2022-09-03T00:01:26;3.70;;;1.23;;
4732;SDS011;2380;53.668;10.008;2022-09-03T00:03:58;4.87;;;2.00;;
4732;SDS011;2380;53.668;10.008;2022-09-03T00:06:35;4.97;;;1.57;;
4732;SDS011;2380;53.668;10.008;2022-09-03T00:09:08;3.60;;;1.53;;
4732;SDS011;2380;53.668;10.008;2022-09-03T00:11:59;2.80;;;1.20;;
4732;SDS011;2380;53.668;10.008;2022-09-03T00:14:33;4.53;;;2.40;;
4732;SDS011;2380;53.668;10.008;2022-09-03T00:17:07;2.50;;;0.90;;
4732;SDS011;2380;53.668;10.008;2022-09-03T00:19:39;3.37;;;1.77;;
4732;SDS011;2380;53.668;10.008;2022-09-03T00:22:15;2.90;;;1.20;;
4732;SDS011;2380;53.668;10.008;2022-09-03T00:24:47;10.53;;;2.60;;
4732;SDS011;2380;53.668;10.008;2022-09-03T00:27:19;3.57;;;1.60;;
4732;SDS011;2380;53.668;10.008;2022-09-03T00:29:51;4.57;;;2.10;;
4732;SDS011;2380;53.668;10.008;2022-09-03T00:32:24;4.50;;;2.10;;
4732;SDS011;2380;53.668;10.008;2022-09-03T00:34:59;7.50;;;1.77;;
4732;SDS011;2380;53.668;10.008;2022-09-03T00:37:33;4.30;;;1.40;;
4732;SDS011;2380;53.668;10.008;2022-09-03T00:40:04;3.60;;;1.97;;
4732;SDS011;2380;53.668;10.008;2022-09-03T00:42:41;2.90;;;1.43;;
4732;SDS011;2380;53.668;10.008;2022-09-03T00:45:15;4.70;;;1.40;;
4732;SDS011;2380;53.668;10.008;2022-09-03T00:48:01;4.50;;;1.73;;
4732;SDS011;2380;53.668;10.008;2022-09-03T00:50:40;4.03;;;1.60;;
4732;SDS011;2380;53.668;10.008;2022-09-03T00:53:19;4.53;;;2.10;;
4732;SDS011;2380;53.668;10.008;2022-09-03T00:55:55;3.20;;;1.57;;
4732;SDS011;2380;53.668;10.008;2022-09-03T00:58:31;2.87;;;1.10;;
4732;SDS011;2380;53.668;10.008;2022-09-03T01:01:17;2.70;;;1.13;;
4732;SDS011;2380;53.668;10.008;2022-09-03T01:03:51;6.27;;;1.83;;
4732;SDS011;2380;53.668;10.008;2022-09-03T01:06:28;4.67;;;1.87;;
4732;SDS011;2380;53.668;10.008;2022-09-03T01:09:11;3.23;;;1.33;;
4732;SDS011;2380;53.668;10.008;2022-09-03T01:11:49;6.00;;;1.30;;
4732;SDS011;2380;53.668;10.008;2022-09-03T01:14:30;3.73;;;1.30;;
4732;SDS011;2380;53.668;10.008;2022-09-03T01:17:08;3.23;;;1.43;;
4732;SDS011;2380;53.668;10.008;2022-09-03T01:19:50;5.17;;;1.70;;
4732;SDS011;2380;53.668;10.008;2022-09-03T01:22:37;4.33;;;1.47;;
4732;SDS011;2380;53.668;10.008;2022-09-03T01:25:22;5.17;;;1.30;;
4732;SDS011;2380;53.668;10.008;2022-09-03T01:28:14;3.03;;;1.33;;
4732;SDS011;2380;53.668;10.008;2022-09-03T01:30:51;5.50;;;1.60;;
4732;SDS011;2380;53.668;10.008;2022-09-03T01:33:25;3.53;;;1.43;;
4732;SDS011;2380;53.668;10.008;2022-09-03T01:36:01;4.30;;;1.67;;
4732;SDS011;2380;53.668;10.008;2022-09-03T01:38:36;4.30;;;1.37;;
4732;SDS011;2380;53.668;10.008;2022-09-03T01:41:12;3.43;;;1.23;;
4732;SDS011;2380;53.668;10.008;2022-09-03T01:44:05;4.50;;;1.70;;
4732;SDS011;2380;53.668;10.008;2022-09-03T01:46:38;4.70;;;1.70;;
4732;SDS011;2380;53.668;10.008;2022-09-03T01:49:13;3.80;;;1.70;;
4732;SDS011;2380;53.668;10.008;2022-09-03T01:51:49;5.30;;;2.23;;
4732;SDS011;2380;53.668;10.008;2022-09-03T01:54:29;3.10;;;1.20;;
4732;SDS011;2380;53.668;10.008;2022-09-03T02:00:10;2.77;;;1.10;;
4732;SDS011;2380;53.668;10.008;2022-09-03T02:02:41;2.63;;;1.30;;
4732;SDS011;2380;53.668;10.008;2022-09-03T02:05:13;3.90;;;1.33;;
4732;SDS011;2380;53.668;10.008;2022-09-03T02:07:47;4.97;;;1.53;;
4732;SDS011;2380;53.668;10.008;2022-09-03T02:10:25;2.50;;;1.30;;
4732;SDS011;2380;53.668;10.008;2022-09-03T02:12:58;4.60;;;1.27;;
4732;SDS011;2380;53.668;10.008;2022-09-03T02:15:37;3.33;;;1.30;;
4732;SDS011;2380;53.668;10.008;2022-09-03T02:18:09;3.23;;;1.33;;
4732;SDS011;2380;53.668;10.008;2022-09-03T02:20:43;6.90;;;2.70;;
4732;SDS011;2380;53.668;10.008;2022-09-03T02:23:13;2.97;;;1.10;;
4732;SDS011;2380;53.668;10.008;2022-09-03T02:25:50;3.90;;;1.30;;
4732;SDS011;2380;53.668;10.008;2022-09-03T02:28:22;3.57;;;1.30;;
4732;SDS011;2380;53.668;10.008;2022-09-03T02:30:55;2.70;;;1.20;;
4732;SDS011;2380;53.668;10.008;2022-09-03T02:33:24;7.93;;;1.27;;
4732;SDS011;2380;53.668;10.008;2022-09-03T02:35:54;3.60;;;1.20;;
4732;SDS011;2380;53.668;10.008;2022-09-03T02:38:24;7.87;;;1.13;;
4732;SDS011;2380;53.668;10.008;2022-09-03T02:40:54;4.30;;;1.40;;
4732;SDS011;2380;53.668;10.008;2022-09-03T02:43:25;3.57;;;1.40;;
4732;SDS011;2380;53.668;10.008;2022-09-03T02:46:01;5.37;;;2.00;;
4732;SDS011;2380;53.668;10.008;2022-09-03T02:48:32;7.70;;;1.47;;
4732;SDS011;2380;53.668;10.008;2022-09-03T02:51:02;5.90;;;1.10;;
4732;SDS011;2380;53.668;10.008;2022-09-03T02:53:39;3.47;;;1.30;;
4732;SDS011;2380;53.668;10.008;2022-09-03T02:56:09;3.23;;;1.70;;
4732;SDS011;2380;53.668;10.008;2022-09-03T02:58:39;2.50;;;1.10;;
4732;SDS011;2380;53.668;10.008;2022-09-03T03:01:11;3.30;;;1.40;;
4732;SDS011;2380;53.668;10.008;2022-09-03T03:03:49;4.50;;;1.80;;
4732;SDS011;2380;53.668;10.008;2022-09-03T03:06:20;2.77;;;1.20;;
4732;SDS011;2380;53.668;10.008;2022-09-03T03:08:49;2.90;;;1.30;;
4732;SDS011;2380;53.668;10.008;2022-09-03T03:11:22;3.67;;;1.50;;
4732;SDS011;2380;53.668;10.008;2022-09-03T03:13:52;2.70;;;1.37;;
4732;SDS011;2380;53.668;10.008;2022-09-03T03:16:24;4.40;;;1.80;;
4732;SDS011;2380;53.668;10.008;2022-09-03T03:18:54;4.67;;;1.40;;
4732;SDS011;2380;53.668;10.008;2022-09-03T03:21:24;2.60;;;1.20;;
4732;SDS011;2380;53.668;10.008;2022-09-03T03:23:54;3.47;;;1.40;;
4732;SDS011;2380;53.668;10.008;2022-09-03T03:26:23;5.50;;;1.50;;
4732;SDS011;2380;53.668;10.008;2022-09-03T03:28:54;3.50;;;1.33;;
4732;SDS011;2380;53.668;10.008;2022-09-03T03:31:28;4.03;;;1.57;;
4732;SDS011;2380;53.668;10.008;2022-09-03T03:33:59;8.73;;;1.60;;
4732;SDS011;2380;53.668;10.008;2022-09-03T03:36:31;3.40;;;1.63;;
4732;SDS011;2380;53.668;10.008;2022-09-03T03:39:01;3.40;;;1.53;;
4732;SDS011;2380;53.668;10.008;2022-09-03T03:41:32;4.00;;;1.63;;
4732;SDS011;2380;53.668;10.008;2022-09-03T03:44:03;3.30;;;1.77;;
4732;SDS011;2380;53.668;10.008;2022-09-03T03:46:37;3.10;;;1.30;;
4732;SDS011;2380;53.668;10.008;2022-09-03T03:49:09;5.13;;;1.43;;
4732;SDS011;2380;53.668;10.008;2022-09-03T03:51:39;3.57;;;1.40;;
4732;SDS011;2380;53.668;10.008;2022-09-03T03:54:08;7.43;;;1.43;;
4732;SDS011;2380;53.668;10.008;2022-09-03T03:56:42;4.00;;;1.20;;
4732;SDS011;2380;53.668;10.008;2022-09-03T03:59:21;2.90;;;1.20;;
4732;SDS011;2380;53.668;10.008;2022-09-03T04:01:53;3.87;;;1.47;;
4732;SDS011;2380;53.668;10.008;2022-09-03T04:04:22;3.30;;;1.23;;
4732;SDS011;2380;53.668;10.008;2022-09-03T04:06:52;6.63;;;1.20;;
4732;SDS011;2380;53.668;10.008;2022-09-03T04:09:21;10.57;;;1.63;;
4732;SDS011;2380;53.668;10.008;2022-09-03T04:11:51;5.53;;;1.77;;
4732;SDS011;2380;53.668;10.008;2022-09-03T04:14:23;3.60;;;1.70;;
4732;SDS011;2380;53.668;10.008;2022-09-03T04:16:55;3.73;;;1.63;;
4732;SDS011;2380;53.668;10.008;2022-09-03T04:19:25;3.67;;;1.80;;
4732;SDS011;2380;53.668;10.008;2022-09-03T04:21:55;4.17;;;1.90;;
4732;SDS011;2380;53.668;10.008;2022-09-03T04:24:25;3.30;;;1.40;;
4732;SDS011;2380;53.668;10.008;2022-09-03T04:26:55;3.60;;;1.70;;
4732;SDS011;2380;53.668;10.008;2022-09-03T04:29:24;3.23;;;1.10;;
4732;SDS011;2380;53.668;10.008;2022-09-03T04:31:59;4.73;;;1.60;;
4732;SDS011;2380;53.668;10.008;2022-09-03T04:34:41;8.10;;;1.40;;
4732;SDS011;2380;53.668;10.008;2022-09-03T04:37:10;3.77;;;1.60;;
4732;SDS011;2380;53.668;10.008;2022-09-03T04:39:41;3.40;;;1.20;;
4732;SDS011;2380;53.668;10.008;2022-09-03T04:42:11;4.93;;;1.60;;
4732;SDS011;2380;53.668;10.008;2022-09-03T04:44:40;3.53;;;1.60;;
4732;SDS011;2380;53.668;10.008;2022-09-03T04:47:12;4.10;;;1.70;;
4732;SDS011;2380;53.668;10.008;2022-09-03T04:49:43;5.93;;;1.60;;
4732;SDS011;2380;53.668;10.008;2022-09-03T04:52:12;4.60;;;2.23;;
4732;SDS011;2380;53.668;10.008;2022-09-03T04:54:42;2.87;;;1.43;;
4732;SDS011;2380;53.668;10.008;2022-09-03T04:57:11;9.03;;;1.30;;
4732;SDS011;2380;53.668;10.008;2022-09-03T04:59:41;3.10;;;1.30;;
4732;SDS011;2380;53.668;10.008;2022-09-03T05:02:13;3.37;;;1.23;;
4732;SDS011;2380;53.668;10.008;2022-09-03T05:04:43;3.40;;;1.23;;
4732;SDS011;2380;53.668;10.008;2022-09-03T05:07:12;4.07;;;1.60;;
4732;SDS011;2380;53.668;10.008;2022-09-03T05:09:45;4.50;;;1.33;;
4732;SDS011;2380;53.668;10.008;2022-09-03T05:12:15;3.47;;;1.50;;
4732;SDS011;2380;53.668;10.008;2022-09-03T05:14:46;4.57;;;1.90;;
4732;SDS011;2380;53.668;10.008;2022-09-03T05:17:18;23.10;;;14.93;;
4732;SDS011;2380;53.668;10.008;2022-09-03T05:19:47;3.80;;;1.67;;
4732;SDS011;2380;53.668;10.008;2022-09-03T05:22:17;15.17;;;7.00;;
4732;SDS011;2380;53.668;10.008;2022-09-03T05:24:46;29.33;;;17.30;;
4732;SDS011;2380;53.668;10.008;2022-09-03T05:27:16;66.90;;;36.77;;
4732;SDS011;2380;53.668;10.008;2022-09-03T05:29:46;70.77;;;41.90;;
4732;SDS011;2380;53.668;10.008;2022-09-03T05:32:18;51.50;;;30.40;;
4732;SDS011;2380;53.668;10.008;2022-09-03T05:34:47;22.63;;;11.80;;
4732;SDS011;2380;53.668;10.008;2022-09-03T05:37:17;33.83;;;19.00;;
4732;SDS011;2380;53.668;10.008;2022-09-03T05:39:48;24.17;;;13.00;;
4732;SDS011;2380;53.668;10.008;2022-09-03T05:42:19;4.33;;;2.30;;
4732;SDS011;2380;53.668;10.008;2022-09-03T05:44:48;10.77;;;5.40;;
4732;SDS011;2380;53.668;10.008;2022-09-03T05:47:20;7.47;;;2.50;;
4732;SDS011;2380;53.668;10.008;2022-09-03T05:49:50;6.13;;;2.87;;
4732;SDS011;2380;53.668;10.008;2022-09-03T05:52:20;4.10;;;1.73;;
4732;SDS011;2380;53.668;10.008;2022-09-03T05:54:49;19.33;;;5.27;;
4732;SDS011;2380;53.668;10.008;2022-09-03T05:57:19;10.90;;;3.60;;
4732;SDS011;2380;53.668;10.008;2022-09-03T05:59:48;5.07;;;1.33;;
4732;SDS011;2380;53.668;10.008;2022-09-03T06:02:21;6.70;;;1.27;;
4732;SDS011;2380;53.668;10.008;2022-09-03T06:04:50;4.20;;;1.30;;
4732;SDS011;2380;53.668;10.008;2022-09-03T06:07:21;3.10;;;1.30;;
4732;SDS011;2380;53.668;10.008;2022-09-03T06:09:50;3.67;;;1.50;;
4732;SDS011;2380;53.668;10.008;2022-09-03T06:12:20;6.00;;;1.67;;
4732;SDS011;2380;53.668;10.008;2022-09-03T06:14:49;3.17;;;1.03;;
4732;SDS011;2380;53.668;10.008;2022-09-03T06:17:24;4.17;;;1.47;;
4732;SDS011;2380;53.668;10.008;2022-09-03T06:19:53;3.80;;;1.70;;
4732;SDS011;2380;53.668;10.008;2022-09-03T06:22:23;4.97;;;1.00;;
4732;SDS011;2380;53.668;10.008;2022-09-03T06:24:55;7.83;;;1.60;;
4732;SDS011;2380;53.668;10.008;2022-09-03T06:27:24;2.57;;;1.10;;
4732;SDS011;2380;53.668;10.008;2022-09-03T06:29:54;2.83;;;1.10;;
4732;SDS011;2380;53.668;10.008;2022-09-03T06:32:27;4.07;;;1.43;;
4732;SDS011;2380;53.668;10.008;2022-09-03T06:34:56;5.43;;;1.47;;
4732;SDS011;2380;53.668;10.008;2022-09-03T06:37:26;3.73;;;1.60;;
4732;SDS011;2380;53.668;10.008;2022-09-03T06:39:55;6.17;;;2.37;;
4732;SDS011;2380;53.668;10.008;2022-09-03T06:42:25;3.97;;;1.17;;
4732;SDS011;2380;53.668;10.008;2022-09-03T06:44:55;3.67;;;1.20;;
4732;SDS011;2380;53.668;10.008;2022-09-03T06:47:27;3.10;;;1.20;;
4732;SDS011;2380;53.668;10.008;2022-09-03T06:49:57;3.20;;;1.07;;
4732;SDS011;2380;53.668;10.008;2022-09-03T06:52:27;3.13;;;1.30;;
4732;SDS011;2380;53.668;10.008;2022-09-03T06:54:57;3.97;;;1.40;;
4732;SDS011;2380;53.668;10.008;2022-09-03T06:57:26;3.43;;;1.10;;
4732;SDS011;2380;53.668;10.008;2022-09-03T06:59:56;3.83;;;1.10;;
4732;SDS011;2380;53.668;10.008;2022-09-03T07:02:28;6.73;;;1.33;;
4732;SDS011;2380;53.668;10.008;2022-09-03T07:04:58;4.07;;;1.87;;
4732;SDS011;2380;53.668;10.008;2022-09-03T07:07:29;14.20;;;6.30;;
4732;SDS011;2380;53.668;10.008;2022-09-03T07:09:59;9.07;;;4.27;;
4732;SDS011;2380;53.668;10.008;2022-09-03T07:12:29;12.23;;;2.70;;
4732;SDS011;2380;53.668;10.008;2022-09-03T07:15:03;8.30;;;3.17;;
4732;SDS011;2380;53.668;10.008;2022-09-03T07:17:35;16.30;;;3.73;;
4732;SDS011;2380;53.668;10.008;2022-09-03T07:20:05;5.57;;;1.70;;
4732;SDS011;2380;53.668;10.008;2022-09-03T07:22:35;5.50;;;2.10;;
4732;SDS011;2380;53.668;10.008;2022-09-03T07:25:05;13.53;;;6.47;;
4732;SDS011;2380;53.668;10.008;2022-09-03T07:27:35;9.07;;;4.37;;
4732;SDS011;2380;53.668;10.008;2022-09-03T07:30:05;9.40;;;4.00;;
4732;SDS011;2380;53.668;10.008;2022-09-03T07:32:39;32.30;;;13.83;;
4732;SDS011;2380;53.668;10.008;2022-09-03T07:35:08;5.90;;;2.03;;
4732;SDS011;2380;53.668;10.008;2022-09-03T07:37:39;7.90;;;2.70;;
4732;SDS011;2380;53.668;10.008;2022-09-03T07:40:09;9.10;;;2.30;;
4732;SDS011;2380;53.668;10.008;2022-09-03T07:42:40;5.83;;;2.40;;
4732;SDS011;2380;53.668;10.008;2022-09-03T07:45:10;5.30;;;1.70;;
4732;SDS011;2380;53.668;10.008;2022-09-03T07:47:47;4.70;;;1.10;;
4732;SDS011;2380;53.668;10.008;2022-09-03T07:50:17;5.97;;;1.50;;
4732;SDS011;2380;53.668;10.008;2022-09-03T07:52:47;3.67;;;1.50;;
4732;SDS011;2380;53.668;10.008;2022-09-03T07:55:16;8.90;;;3.07;;
4732;SDS011;2380;53.668;10.008;2022-09-03T07:57:46;7.37;;;2.33;;
4732;SDS011;2380;53.668;10.008;2022-09-03T08:00:15;5.60;;;2.37;;
4732;SDS011;2380;53.668;10.008;2022-09-03T08:02:48;7.87;;;3.70;;
4732;SDS011;2380;53.668;10.008;2022-09-03T08:05:21;4.50;;;2.13;;
4732;SDS011;2380;53.668;10.008;2022-09-03T08:07:50;27.30;;;12.10;;
4732;SDS011;2380;53.668;10.008;2022-09-03T08:10:20;7.93;;;3.20;;
4732;SDS011;2380;53.668;10.008;2022-09-03T08:12:51;6.40;;;2.93;;
4732;SDS011;2380;53.668;10.008;2022-09-03T08:15:20;13.97;;;6.20;;
4732;SDS011;2380;53.668;10.008;2022-09-03T08:17:52;5.83;;;1.80;;
4732;SDS011;2380;53.668;10.008;2022-09-03T08:20:31;4.10;;;1.67;;
4732;SDS011;2380;53.668;10.008;2022-09-03T08:23:00;6.63;;;2.00;;
4732;SDS011;2380;53.668;10.008;2022-09-03T08:25:30;4.37;;;1.30;;
4732;SDS011;2380;53.668;10.008;2022-09-03T08:28:00;5.50;;;2.30;;
4732;SDS011;2380;53.668;10.008;2022-09-03T08:30:30;4.87;;;1.60;;
4732;SDS011;2380;53.668;10.008;2022-09-03T08:33:03;8.50;;;1.77;;
4732;SDS011;2380;53.668;10.008;2022-09-03T08:35:33;7.37;;;1.60;;
4732;SDS011;2380;53.668;10.008;2022-09-03T08:38:03;10.07;;;1.30;;
4732;SDS011;2380;53.668;10.008;2022-09-03T08:40:36;4.70;;;2.10;;
4732;SDS011;2380;53.668;10.008;2022-09-03T08:43:08;3.37;;;1.40;;
4732;SDS011;2380;53.668;10.008;2022-09-03T08:45:42;4.10;;;1.90;;
4732;SDS011;2380;53.668;10.008;2022-09-03T08:48:16;6.60;;;1.57;;
4732;SDS011;2380;53.668;10.008;2022-09-03T08:50:51;8.57;;;1.70;;
4732;SDS011;2380;53.668;10.008;2022-09-03T08:53:27;5.13;;;1.90;;
4732;SDS011;2380;53.668;10.008;2022-09-03T08:56:02;5.57;;;2.30;;
4732;SDS011;2380;53.668;10.008;2022-09-03T08:58:32;3.50;;;1.40;;
4732;SDS011;2380;53.668;10.008;2022-09-03T09:01:06;15.80;;;6.63;;
4732;SDS011;2380;53.668;10.008;2022-09-03T09:03:45;5.27;;;1.63;;
4732;SDS011;2380;53.668;10.008;2022-09-03T09:06:20;4.80;;;1.80;;
4732;SDS011;2380;53.668;10.008;2022-09-03T09:09:03;4.20;;;1.67;;
4732;SDS011;2380;53.668;10.008;2022-09-03T09:11:45;5.33;;;1.40;;
4732;SDS011;2380;53.668;10.008;2022-09-03T09:14:19;13.07;;;6.70;;
4732;SDS011;2380;53.668;10.008;2022-09-03T09:16:55;3.83;;;1.40;;
4732;SDS011;2380;53.668;10.008;2022-09-03T09:19:34;5.07;;;2.50;;
4732;SDS011;2380;53.668;10.008;2022-09-03T09:22:08;6.03;;;1.87;;
4732;SDS011;2380;53.668;10.008;2022-09-03T09:24:40;15.13;;;4.73;;
4732;SDS011;2380;53.668;10.008;2022-09-03T09:27:12;5.73;;;2.37;;
4732;SDS011;2380;53.668;10.008;2022-09-03T09:29:44;5.57;;;2.40;;
4732;SDS011;2380;53.668;10.008;2022-09-03T09:32:18;9.77;;;5.47;;
4732;SDS011;2380;53.668;10.008;2022-09-03T09:34:50;4.27;;;1.60;;
4732;SDS011;2380;53.668;10.008;2022-09-03T09:37:20;6.33;;;1.50;;
4732;SDS011;2380;53.668;10.008;2022-09-03T09:39:53;6.17;;;2.47;;
4732;SDS011;2380;53.668;10.008;2022-09-03T09:42:24;4.93;;;1.30;;
4732;SDS011;2380;53.668;10.008;2022-09-03T09:44:56;6.67;;;1.67;;
4732;SDS011;2380;53.668;10.008;2022-09-03T09:47:26;4.73;;;1.37;;
4732;SDS011;2380;53.668;10.008;2022-09-03T09:50:00;2.70;;;1.20;;
4732;SDS011;2380;53.668;10.008;2022-09-03T09:52:39;5.27;;;1.23;;
4732;SDS011;2380;53.668;10.008;2022-09-03T09:55:16;3.27;;;1.50;;
4732;SDS011;2380;53.668;10.008;2022-09-03T09:57:51;4.50;;;1.47;;
4732;SDS011;2380;53.668;10.008;2022-09-03T10:00:21;2.50;;;1.00;;
4732;SDS011;2380;53.668;10.008;2022-09-03T10:02:52;5.50;;;1.30;;
4732;SDS011;2380;53.668;10.008;2022-09-03T10:05:25;2.63;;;1.20;;
4732;SDS011;2380;53.668;10.008;2022-09-03T10:07:56;3.40;;;1.20;;
4732;SDS011;2380;53.668;10.008;2022-09-03T10:10:27;5.83;;;2.27;;
4732;SDS011;2380;53.668;10.008;2022-09-03T10:13:03;5.50;;;1.80;;
4732;SDS011;2380;53.668;10.008;2022-09-03T10:15:36;3.97;;;1.33;;
4732;SDS011;2380;53.668;10.008;2022-09-03T10:18:10;9.97;;;1.27;;
4732;SDS011;2380;53.668;10.008;2022-09-03T10:20:47;8.30;;;1.80;;
4732;SDS011;2380;53.668;10.008;2022-09-03T10:23:21;5.00;;;1.60;;
4732;SDS011;2380;53.668;10.008;2022-09-03T10:25:56;4.73;;;1.20;;
4732;SDS011;2380;53.668;10.008;2022-09-03T10:28:33;4.63;;;1.40;;
4732;SDS011;2380;53.668;10.008;2022-09-03T10:31:17;3.87;;;1.80;;
4732;SDS011;2380;53.668;10.008;2022-09-03T10:33:55;8.77;;;3.60;;
4732;SDS011;2380;53.668;10.008;2022-09-03T10:36:33;7.40;;;1.97;;
4732;SDS011;2380;53.668;10.008;2022-09-03T10:39:11;5.80;;;2.07;;
4732;SDS011;2380;53.668;10.008;2022-09-03T10:41:46;3.20;;;1.20;;
4732;SDS011;2380;53.668;10.008;2022-09-03T10:47:18;3.90;;;1.20;;
4732;SDS011;2380;53.668;10.008;2022-09-03T10:49:55;5.50;;;1.80;;
4732;SDS011;2380;53.668;10.008;2022-09-03T10:52:34;6.27;;;2.83;;
4732;SDS011;2380;53.668;10.008;2022-09-03T10:55:16;8.47;;;1.37;;
4732;SDS011;2380;53.668;10.008;2022-09-03T10:57:50;4.20;;;1.50;;
4732;SDS011;2380;53.668;10.008;2022-09-03T11:00:38;4.23;;;1.30;;
4732;SDS011;2380;53.668;10.008;2022-09-03T11:03:18;3.83;;;2.00;;
4732;SDS011;2380;53.668;10.008;2022-09-03T11:05:59;4.27;;;1.73;;
4732;SDS011;2380;53.668;10.008;2022-09-03T11:08:35;3.47;;;1.37;;
4732;SDS011;2380;53.668;10.008;2022-09-03T11:11:09;8.67;;;1.83;;
4732;SDS011;2380;53.668;10.008;2022-09-03T11:13:43;3.80;;;1.70;;
4732;SDS011;2380;53.668;10.008;2022-09-03T11:16:16;7.27;;;2.30;;
4732;SDS011;2380;53.668;10.008;2022-09-03T11:18:52;4.90;;;1.97;;
4732;SDS011;2380;53.668;10.008;2022-09-03T11:21:24;4.60;;;1.73;;
4732;SDS011;2380;53.668;10.008;2022-09-03T11:24:00;5.30;;;2.00;;
4732;SDS011;2380;53.668;10.008;2022-09-03T11:26:34;3.23;;;1.40;;
4732;SDS011;2380;53.668;10.008;2022-09-03T11:29:05;4.43;;;1.40;;
4732;SDS011;2380;53.668;10.008;2022-09-03T11:31:44;5.30;;;1.77;;
4732;SDS011;2380;53.668;10.008;2022-09-03T11:34:25;3.07;;;1.30;;
4732;SDS011;2380;53.668;10.008;2022-09-03T11:37:05;15.00;;;7.90;;
4732;SDS011;2380;53.668;10.008;2022-09-03T11:39:38;15.27;;;7.70;;
4732;SDS011;2380;53.668;10.008;2022-09-03T11:42:09;5.47;;;3.10;;
4732;SDS011;2380;53.668;10.008;2022-09-03T11:44:43;8.87;;;4.97;;
4732;SDS011;2380;53.668;10.008;2022-09-03T11:47:20;6.33;;;3.30;;
4732;SDS011;2380;53.668;10.008;2022-09-03T11:50:03;7.30;;;4.50;;
4732;SDS011;2380;53.668;10.008;2022-09-03T11:52:36;7.70;;;4.60;;
4732;SDS011;2380;53.668;10.008;2022-09-03T11:55:08;8.10;;;2.90;;
4732;SDS011;2380;53.668;10.008;2022-09-03T11:57:39;7.17;;;2.30;;
4732;SDS011;2380;53.668;10.008;2022-09-03T12:00:11;6.30;;;3.27;;
4732;SDS011;2380;53.668;10.008;2022-09-03T12:02:44;5.47;;;2.60;;
4732;SDS011;2380;53.668;10.008;2022-09-03T12:05:20;9.07;;;2.90;;
4732;SDS011;2380;53.668;10.008;2022-09-03T12:08:09;10.30;;;4.20;;
4732;SDS011;2380;53.668;10.008;2022-09-03T12:10:53;8.67;;;2.60;;
4732;SDS011;2380;53.668;10.008;2022-09-03T12:13:29;8.13;;;2.83;;
4732;SDS011;2380;53.668;10.008;2022-09-03T12:18:53;5.43;;;2.43;;
4732;SDS011;2380;53.668;10.008;2022-09-03T12:21:24;4.27;;;1.90;;
4732;SDS011;2380;53.668;10.008;2022-09-03T12:23:56;3.70;;;1.40;;
4732;SDS011;2380;53.668;10.008;2022-09-03T12:26:28;9.87;;;1.50;;
4732;SDS011;2380;53.668;10.008;2022-09-03T12:28:59;21.33;;;9.90;;
4732;SDS011;2380;53.668;10.008;2022-09-03T12:31:42;15.23;;;11.23;;
4732;SDS011;2380;53.668;10.008;2022-09-03T12:34:14;6.03;;;3.40;;
4732;SDS011;2380;53.668;10.008;2022-09-03T12:36:46;7.50;;;2.93;;
4732;SDS011;2380;53.668;10.008;2022-09-03T12:39:17;9.93;;;4.37;;
4732;SDS011;2380;53.668;10.008;2022-09-03T12:42:12;5.17;;;2.50;;
4732;SDS011;2380;53.668;10.008;2022-09-03T12:44:47;5.00;;;2.17;;
4732;SDS011;2380;53.668;10.008;2022-09-03T12:47:17;5.03;;;1.70;;
4732;SDS011;2380;53.668;10.008;2022-09-03T12:50:05;5.03;;;2.20;;
4732;SDS011;2380;53.668;10.008;2022-09-03T12:52:37;4.00;;;2.10;;
4732;SDS011;2380;53.668;10.008;2022-09-03T12:55:11;4.40;;;1.77;;
4732;SDS011;2380;53.668;10.008;2022-09-03T12:57:50;6.40;;;2.17;;
4732;SDS011;2380;53.668;10.008;2022-09-03T13:00:27;5.30;;;1.63;;
4732;SDS011;2380;53.668;10.008;2022-09-03T13:02:59;5.77;;;1.73;;
4732;SDS011;2380;53.668;10.008;2022-09-03T13:05:31;10.80;;;6.03;;
4732;SDS011;2380;53.668;10.008;2022-09-03T13:08:03;5.17;;;1.83;;
4732;SDS011;2380;53.668;10.008;2022-09-03T13:10:34;5.37;;;1.50;;
4732;SDS011;2380;53.668;10.008;2022-09-03T13:13:15;7.13;;;1.80;;
4732;SDS011;2380;53.668;10.008;2022-09-03T13:18:42;9.77;;;3.20;;
4732;SDS011;2380;53.668;10.008;2022-09-03T13:21:17;6.43;;;2.50;;
4732;SDS011;2380;53.668;10.008;2022-09-03T13:23:53;3.90;;;1.27;;
4732;SDS011;2380;53.668;10.008;2022-09-03T13:26:32;6.67;;;1.80;;
4732;SDS011;2380;53.668;10.008;2022-09-03T13:32:06;17.63;;;10.93;;
4732;SDS011;2380;53.668;10.008;2022-09-03T13:34:45;9.93;;;6.30;;
4732;SDS011;2380;53.668;10.008;2022-09-03T13:37:20;12.93;;;7.90;;
4732;SDS011;2380;53.668;10.008;2022-09-03T13:39:53;6.53;;;2.90;;
4732;SDS011;2380;53.668;10.008;2022-09-03T13:42:26;9.43;;;1.80;;
4732;SDS011;2380;53.668;10.008;2022-09-03T13:45:04;3.97;;;1.80;;
4732;SDS011;2380;53.668;10.008;2022-09-03T13:47:39;5.60;;;2.47;;
4732;SDS011;2380;53.668;10.008;2022-09-03T13:50:34;5.50;;;1.60;;
4732;SDS011;2380;53.668;10.008;2022-09-03T13:53:07;6.63;;;2.03;;
4732;SDS011;2380;53.668;10.008;2022-09-03T13:55:41;3.60;;;1.87;;
4732;SDS011;2380;53.668;10.008;2022-09-03T13:58:17;7.50;;;1.50;;
4732;SDS011;2380;53.668;10.008;2022-09-03T14:01:03;11.20;;;1.80;;
4732;SDS011;2380;53.668;10.008;2022-09-03T14:03:37;4.30;;;1.07;;
4732;SDS011;2380;53.668;10.008;2022-09-03T14:06:18;5.00;;;2.10;;
4732;SDS011;2380;53.668;10.008;2022-09-03T14:08:58;7.80;;;4.00;;
4732;SDS011;2380;53.668;10.008;2022-09-03T14:11:34;5.97;;;2.53;;
4732;SDS011;2380;53.668;10.008;2022-09-03T14:14:11;9.10;;;3.50;;
4732;SDS011;2380;53.668;10.008;2022-09-03T14:16:49;4.93;;;2.50;;
4732;SDS011;2380;53.668;10.008;2022-09-03T14:19:30;8.63;;;3.83;;
4732;SDS011;2380;53.668;10.008;2022-09-03T14:22:04;3.10;;;1.23;;
4732;SDS011;2380;53.668;10.008;2022-09-03T14:24:38;7.70;;;3.03;;
4732;SDS011;2380;53.668;10.008;2022-09-03T14:27:21;8.93;;;3.27;;
4732;SDS011;2380;53.668;10.008;2022-09-03T14:29:52;5.37;;;2.30;;
4732;SDS011;2380;53.668;10.008;2022-09-03T14:32:30;4.33;;;1.97;;
4732;SDS011;2380;53.668;10.008;2022-09-03T14:35:16;4.93;;;2.10;;
4732;SDS011;2380;53.668;10.008;2022-09-03T14:37:57;6.53;;;2.50;;
4732;SDS011;2380;53.668;10.008;2022-09-03T14:40:51;9.93;;;6.50;;
4732;SDS011;2380;53.668;10.008;2022-09-03T14:43:29;12.93;;;7.73;;
4732;SDS011;2380;53.668;10.008;2022-09-03T14:46:22;18.00;;;10.87;;
4732;SDS011;2380;53.668;10.008;2022-09-03T14:54:57;5.17;;;2.47;;
4732;SDS011;2380;53.668;10.008;2022-09-03T14:57:39;7.47;;;2.80;;
4732;SDS011;2380;53.668;10.008;2022-09-03T15:00:16;9.17;;;3.10;;
4732;SDS011;2380;53.668;10.008;2022-09-03T15:02:51;9.40;;;3.20;;
4732;SDS011;2380;53.668;10.008;2022-09-03T15:08:37;5.47;;;2.43;;
4732;SDS011;2380;53.668;10.008;2022-09-03T15:11:14;4.93;;;1.93;;
4732;SDS011;2380;53.668;10.008;2022-09-03T15:13:48;11.53;;;3.67;;
4732;SDS011;2380;53.668;10.008;2022-09-03T15:16:26;7.90;;;3.80;;
4732;SDS011;2380;53.668;10.008;2022-09-03T15:19:04;8.47;;;4.17;;
4732;SDS011;2380;53.668;10.008;2022-09-03T15:21:44;8.77;;;4.40;;
4732;SDS011;2380;53.668;10.008;2022-09-03T15:24:25;4.00;;;1.97;;
4732;SDS011;2380;53.668;10.008;2022-09-03T15:27:04;6.27;;;2.80;;
4732;SDS011;2380;53.668;10.008;2022-09-03T15:29:43;9.87;;;5.40;;
4732;SDS011;2380;53.668;10.008;2022-09-03T15:32:20;5.63;;;2.77;;
4732;SDS011;2380;53.668;10.008;2022-09-03T15:35:01;4.30;;;1.53;;
4732;SDS011;2380;53.668;10.008;2022-09-03T15:37:37;6.00;;;2.97;;
4732;SDS011;2380;53.668;10.008;2022-09-03T15:40:17;4.30;;;1.37;;
4732;SDS011;2380;53.668;10.008;2022-09-03T15:42:58;7.83;;;3.00;;
4732;SDS011;2380;53.668;10.008;2022-09-03T15:45:34;8.10;;;4.43;;
4732;SDS011;2380;53.668;10.008;2022-09-03T15:48:12;4.10;;;1.70;;
4732;SDS011;2380;53.668;10.008;2022-09-03T15:50:51;6.10;;;2.20;;
4732;SDS011;2380;53.668;10.008;2022-09-03T15:53:32;9.17;;;5.50;;
4732;SDS011;2380;53.668;10.008;2022-09-03T15:56:11;15.37;;;7.37;;
4732;SDS011;2380;53.668;10.008;2022-09-03T15:58:51;10.10;;;3.03;;
4732;SDS011;2380;53.668;10.008;2022-09-03T16:01:27;5.30;;;2.53;;
4732;SDS011;2380;53.668;10.008;2022-09-03T16:04:08;5.43;;;2.50;;
4732;SDS011;2380;53.668;10.008;2022-09-03T16:06:48;7.97;;;3.30;;